Time;durP1;ratioP1;P1;durP2;ratioP2;P2;SDS_P1;SDS_P2;PMS_P1;PMS_P2;Temp;Humidity;BMP_temperature;BMP_pressure;BME280_temperature;BME280_humidity;BME280_pressure;Samples;Min_cycle;Max_cycle;Signal;HPM_P1;HPM_P2
2023/06/27 00:00:59;;;;;;;;;;;;;;;20.49;nan;98152.66;5065989;28;19956;-65
2023/06/27 00:03:27;;;;;;;;;;;;;;;20.69;nan;98153.34;5050959;28;19994;-65
2023/06/27 00:05:55;;;;;;;;;;;;;;;20.44;nan;98157.66;5065969;28;19924;-65
2023/06/27 00:08:23;;;;;;;;;;;;;;;20.41;nan;98164.72;5064085;28;19971;-65
2023/06/27 00:10:52;;;;;;;;;;;;;;;20.40;nan;98163.16;5053143;28;19928;-65
2023/06/27 00:13:20;;;;;;;;;;;;;;;20.37;nan;98167.44;5050359;28;19925;-65
2023/06/27 00:15:53;;;;;;;;;;;;;;;20.37;nan;98170.19;5070645;28;19924;-65
2023/06/27 00:18:21;;;;;;;;;;;;;;;20.37;nan;98166.63;5051957;28;19955;-64
2023/06/27 00:20:49;;;;;;;;;;;;;;;20.27;nan;98170.00;5047748;28;20015;-64
2023/06/27 00:23:17;;;;;;;;;;;;;;;20.28;nan;98175.16;5066021;28;19935;-65
2023/06/27 00:25:45;;;;;;;;;;;;;;;20.22;nan;98173.06;5052930;28;19924;-65
2023/06/27 00:28:14;;;;;;;;;;;;;;;20.22;nan;98170.31;5067837;28;19928;-65
2023/06/27 00:30:42;;;;;;;;;;;;;;;20.19;nan;98180.16;5052806;28;19924;-65
2023/06/27 00:33:10;;;;;;;;;;;;;;;20.20;nan;98178.19;5064576;28;19959;-64
2023/06/27 00:35:38;;;;;;;;;;;;;;;20.24;nan;98179.84;5077718;28;20015;-66
2023/06/27 00:38:07;;;;;;;;;;;;;;;20.08;nan;98179.13;5054255;28;19935;-65
2023/06/27 00:40:35;;;;;;;;;;;;;;;20.02;nan;98184.16;5072834;28;19932;-64
2023/06/27 00:43:04;;;;;;;;;;;;;;;19.92;nan;98189.47;5048909;28;20015;-64
2023/06/27 00:45:34;;;;;;;;;;;;;;;20.01;nan;98184.53;5050537;28;19969;-65
2023/06/27 00:48:02;;;;;;;;;;;;;;;20.06;nan;98195.25;5052811;28;20021;-65
2023/06/27 00:50:31;;;;;;;;;;;;;;;19.93;nan;98180.88;5054158;28;20273;-65
2023/06/27 00:53:00;;;;;;;;;;;;;;;19.90;nan;98198.13;5048499;28;20258;-65
2023/06/27 00:55:30;;;;;;;;;;;;;;;19.74;nan;98198.22;5065894;28;19935;-64
2023/06/27 00:57:58;;;;;;;;;;;;;;;19.86;nan;98202.78;5087528;28;19932;-65
2023/06/27 01:04:28;;;;;;;;;;;;;;;19.71;nan;98203.66;4975468;28;19961;-92
2023/06/27 01:06:58;;;;;;;;;;;;;;;19.79;nan;98211.72;4963727;28;19926;-90
2023/06/27 01:09:28;;;;;;;;;;;;;;;19.75;nan;98219.13;4964977;28;20020;-91
2023/06/27 01:11:58;;;;;;;;;;;;;;;19.67;nan;98217.41;4998103;23;20391;-66
2023/06/27 01:14:27;;;;;;;;;;;;;;;19.75;nan;98208.09;4996095;28;19976;-65
2023/06/27 01:16:56;;;;;;;;;;;;;;;19.81;nan;98212.13;5009091;28;19930;-65
2023/06/27 01:19:25;;;;;;;;;;;;;;;19.64;nan;98218.09;4990471;28;20020;-66
2023/06/27 01:21:57;;;;;;;;;;;;;;;19.50;nan;98224.13;5013307;28;20359;-65
2023/06/27 01:24:26;;;;;;;;;;;;;;;19.65;nan;98218.91;4994362;28;20277;-65
2023/06/27 01:26:54;;;;;;;;;;;;;;;19.49;nan;98228.00;5013835;28;20395;-65
2023/06/27 01:29:22;;;;;;;;;;;;;;;19.53;nan;98228.09;4996053;28;20371;-65
2023/06/27 01:31:50;;;;;;;;;;;;;;;19.41;nan;98236.50;4994642;28;20029;-66
2023/06/27 01:34:19;;;;;;;;;;;;;;;19.46;nan;98233.47;5000685;28;20937;-64
2023/06/27 01:36:51;;;;;;;;;;;;;;;19.41;nan;98231.00;4993356;28;19930;-65
2023/06/27 01:39:19;;;;;;;;;;;;;;;19.36;nan;98230.13;5010603;28;20024;-64
2023/06/27 01:41:49;;;;;;;;;;;;;;;19.44;nan;98236.59;4996336;28;20085;-65
2023/06/27 01:44:17;;;;;;;;;;;;;;;19.38;nan;98227.78;4995519;28;19929;-65
2023/06/27 01:46:45;;;;;;;;;;;;;;;19.34;nan;98226.16;4994600;28;19925;-65
2023/06/27 01:49:12;;;;;;;;;;;;;;;19.21;nan;98227.41;5004262;28;20283;-65
2023/06/27 01:51:40;;;;;;;;;;;;;;;19.20;nan;98221.13;5010506;28;20712;-65
2023/06/27 01:54:08;;;;;;;;;;;;;;;19.14;nan;98222.56;5009377;28;19967;-69
2023/06/27 01:56:36;;;;;;;;;;;;;;;19.06;nan;98227.09;4987268;28;19941;-65
2023/06/27 01:59:07;;;;;;;;;;;;;;;18.95;nan;98225.25;4994804;28;19926;-66
2023/06/27 02:01:35;;;;;;;;;;;;;;;18.87;nan;98224.31;5006901;28;19985;-65
2023/06/27 02:04:05;;;;;;;;;;;;;;;18.91;nan;98222.44;5007914;28;19929;-66
2023/06/27 02:06:33;;;;;;;;;;;;;;;18.88;nan;98230.63;5005328;28;19925;-65
2023/06/27 02:09:01;;;;;;;;;;;;;;;19.00;nan;98231.28;4992139;28;19976;-64
2023/06/27 02:11:29;;;;;;;;;;;;;;;18.94;nan;98234.69;5006835;28;20235;-65
2023/06/27 02:13:58;;;;;;;;;;;;;;;18.72;nan;98228.69;4995141;28;19933;-68
2023/06/27 02:16:27;;;;;;;;;;;;;;;18.80;nan;98235.97;4992142;28;19979;-62
2023/06/27 02:18:54;;;;;;;;;;;;;;;18.92;nan;98239.75;5001366;28;19953;-63
2023/06/27 02:21:26;;;;;;;;;;;;;;;18.72;nan;98241.66;4992564;28;19926;-63
2023/06/27 02:23:54;;;;;;;;;;;;;;;18.69;nan;98234.88;5007795;28;19953;-62
2023/06/27 02:26:22;;;;;;;;;;;;;;;18.72;nan;98234.19;4995125;28;20012;-63
2023/06/27 02:28:49;;;;;;;;;;;;;;;18.64;nan;98237.09;4996022;28;19925;-63
2023/06/27 02:31:18;;;;;;;;;;;;;;;18.65;nan;98235.97;5011378;28;19925;-66
2023/06/27 02:33:47;;;;;;;;;;;;;;;18.59;nan;98236.22;4993957;28;19965;-65
2023/06/27 02:36:16;;;;;;;;;;;;;;;18.54;nan;98242.00;4987234;28;19929;-65
2023/06/27 02:38:44;;;;;;;;;;;;;;;18.59;nan;98229.94;4988557;28;19971;-64
2023/06/27 02:41:12;;;;;;;;;;;;;;;18.62;nan;98229.19;5008571;28;19940;-65
2023/06/27 02:43:40;;;;;;;;;;;;;;;18.88;nan;98238.88;5008265;28;20007;-66
2023/06/27 02:46:08;;;;;;;;;;;;;;;18.56;nan;98236.94;5010910;28;19925;-66
2023/06/27 02:48:36;;;;;;;;;;;;;;;18.59;nan;98235.44;5005171;28;20371;-65
2023/06/27 02:51:05;;;;;;;;;;;;;;;18.62;nan;98233.91;4994603;28;19956;-66
2023/06/27 02:53:33;;;;;;;;;;;;;;;18.62;nan;98233.91;5012501;28;19925;-65
2023/06/27 02:56:02;;;;;;;;;;;;;;;18.50;nan;98237.56;4994602;28;20157;-67
2023/06/27 02:58:34;;;;;;;;;;;;;;;18.57;nan;98243.22;4992485;28;19925;-65
2023/06/27 03:01:06;;;;;;;;;;;;;;;18.40;nan;98236.13;4994298;28;19957;-65
2023/06/27 03:03:38;;;;;;;;;;;;;;;18.25;nan;98232.22;4993658;28;20490;-65
2023/06/27 03:06:08;;;;;;;;;;;;;;;18.21;nan;98238.78;4989668;28;19929;-65
2023/06/27 03:08:38;;;;;;;;;;;;;;;18.22;nan;98232.94;4991891;28;19925;-68
2023/06/27 03:11:06;;;;;;;;;;;;;;;18.12;nan;98244.47;4990107;28;20499;-62
2023/06/27 03:13:35;;;;;;;;;;;;;;;18.15;nan;98243.72;5007830;28;19948;-62
2023/06/27 03:16:05;;;;;;;;;;;;;;;18.03;nan;98236.34;4990377;28;19960;-62
2023/06/27 03:18:33;;;;;;;;;;;;;;;18.12;nan;98243.66;4994184;28;19933;-63
2023/06/27 03:21:03;;;;;;;;;;;;;;;18.04;nan;98243.44;4993392;28;19956;-62
2023/06/27 03:23:32;;;;;;;;;;;;;;;18.25;nan;98247.91;4994610;28;20012;-62
2023/06/27 03:26:01;;;;;;;;;;;;;;;18.10;nan;98252.25;4993489;28;20020;-64
2023/06/27 03:28:30;;;;;;;;;;;;;;;18.19;nan;98250.13;4988548;28;19933;-64
2023/06/27 03:30:59;;;;;;;;;;;;;;;18.01;nan;98252.41;5006835;28;20372;-64
2023/06/27 03:33:26;;;;;;;;;;;;;;;17.87;nan;98249.28;4993138;28;19929;-63
2023/06/27 03:35:57;;;;;;;;;;;;;;;17.98;nan;98255.06;5003632;28;19925;-64
2023/06/27 03:38:25;;;;;;;;;;;;;;;17.90;nan;98261.53;4987944;28;20366;-66
2023/06/27 03:40:54;;;;;;;;;;;;;;;17.86;nan;98257.88;5006360;28;19925;-63
2023/06/27 03:43:22;;;;;;;;;;;;;;;17.72;nan;98259.06;5010887;28;20357;-64
2023/06/27 03:45:50;;;;;;;;;;;;;;;17.69;nan;98268.00;4988719;28;20347;-63
2023/06/27 03:48:18;;;;;;;;;;;;;;;17.63;nan;98269.41;5005343;28;19933;-64
2023/06/27 03:50:45;;;;;;;;;;;;;;;17.74;nan;98267.78;4989658;28;19926;-64
2023/06/27 03:53:13;;;;;;;;;;;;;;;17.59;nan;98267.69;4987668;28;19925;-64
2023/06/27 03:55:41;;;;;;;;;;;;;;;17.52;nan;98268.25;4993727;28;19929;-63
2023/06/27 03:58:11;;;;;;;;;;;;;;;17.43;nan;98276.66;4993630;28;19975;-64
2023/06/27 04:00:38;;;;;;;;;;;;;;;17.60;nan;98275.56;5007929;28;19971;-63
2023/06/27 04:03:06;;;;;;;;;;;;;;;17.62;nan;98276.00;4990651;28;19925;-63
2023/06/27 04:05:34;;;;;;;;;;;;;;;17.71;nan;98278.63;4996073;28;19925;-64
2023/06/27 04:08:02;;;;;;;;;;;;;;;17.55;nan;98282.09;5005324;28;19933;-63
2023/06/27 04:10:30;;;;;;;;;;;;;;;17.59;nan;98282.22;4992751;28;19926;-64
2023/06/27 04:12:58;;;;;;;;;;;;;;;17.54;nan;98282.47;5004449;28;20322;-66
2023/06/27 04:15:27;;;;;;;;;;;;;;;17.56;nan;98299.38;4989671;28;19926;-64
2023/06/27 04:18:06;;;;;;;;;;;;;;;17.66;nan;98298.91;4997969;28;20417;-63
2023/06/27 04:20:37;;;;;;;;;;;;;;;17.57;nan;98302.94;4995740;28;19933;-65
2023/06/27 04:23:06;;;;;;;;;;;;;;;17.51;nan;98296.88;4996523;28;20322;-63
2023/06/27 04:25:34;;;;;;;;;;;;;;;17.54;nan;98312.69;4985782;28;19940;-66
2023/06/27 04:28:04;;;;;;;;;;;;;;;17.50;nan;98304.31;4983285;28;19976;-63
2023/06/27 04:30:33;;;;;;;;;;;;;;;17.52;nan;98303.97;5005114;28;20682;-63
2023/06/27 04:33:02;;;;;;;;;;;;;;;17.42;nan;98299.78;5007015;28;19925;-64
2023/06/27 04:35:30;;;;;;;;;;;;;;;17.42;nan;98305.28;5004606;28;19925;-66
2023/06/27 04:37:58;;;;;;;;;;;;;;;17.47;nan;98304.22;5006039;28;19980;-64
2023/06/27 04:40:26;;;;;;;;;;;;;;;17.55;nan;98308.78;4996339;28;19926;-64
2023/06/27 04:42:53;;;;;;;;;;;;;;;17.41;nan;98305.59;4997616;28;20401;-64
2023/06/27 04:45:21;;;;;;;;;;;;;;;17.25;nan;98300.03;4990615;28;20638;-64
2023/06/27 04:47:50;;;;;;;;;;;;;;;17.23;nan;98324.28;5007461;28;19925;-64
2023/06/27 04:50:19;;;;;;;;;;;;;;;17.13;nan;98306.34;5008051;28;19938;-64
2023/06/27 04:52:46;;;;;;;;;;;;;;;17.12;nan;98312.97;4999422;28;19933;-63
2023/06/27 04:55:15;;;;;;;;;;;;;;;17.11;nan;98311.38;5003745;28;20342;-63
2023/06/27 04:57:43;;;;;;;;;;;;;;;17.21;nan;98321.91;5009698;28;19929;-63
2023/06/27 05:00:11;;;;;;;;;;;;;;;17.08;nan;98317.53;4985155;28;19964;-64
2023/06/27 05:02:39;;;;;;;;;;;;;;;17.14;nan;98332.63;5002559;28;19930;-64
2023/06/27 05:05:17;;;;;;;;;;;;;;;17.09;nan;98313.66;5005407;28;19971;-63
2023/06/27 05:07:44;;;;;;;;;;;;;;;17.08;nan;98327.72;5006078;28;19926;-63
2023/06/27 05:10:12;;;;;;;;;;;;;;;17.08;nan;98325.78;5003944;28;19965;-65
2023/06/27 05:12:40;;;;;;;;;;;;;;;17.49;nan;98332.94;4987532;28;20387;-63
2023/06/27 05:15:08;;;;;;;;;;;;;;;17.53;nan;98324.81;5005605;28;19930;-66
2023/06/27 05:17:36;;;;;;;;;;;;;;;17.64;nan;98327.88;5004306;28;19933;-65
2023/06/27 05:20:05;;;;;;;;;;;;;;;17.40;nan;98331.47;5004556;28;19929;-62
2023/06/27 05:22:34;;;;;;;;;;;;;;;17.52;nan;98336.94;4990100;28;19934;-61
2023/06/27 05:25:02;;;;;;;;;;;;;;;17.34;nan;98341.91;5000580;28;19987;-63
2023/06/27 05:27:30;;;;;;;;;;;;;;;17.23;nan;98330.59;4985477;28;19976;-64
2023/06/27 05:29:58;;;;;;;;;;;;;;;17.15;nan;98334.25;4997167;28;19926;-62
2023/06/27 05:32:26;;;;;;;;;;;;;;;17.25;nan;98343.97;4998051;28;19981;-62
2023/06/27 05:34:54;;;;;;;;;;;;;;;17.17;nan;98342.94;5000018;28;20334;-61
2023/06/27 05:37:24;;;;;;;;;;;;;;;17.12;nan;98348.66;5005658;28;19925;-62
2023/06/27 05:39:53;;;;;;;;;;;;;;;17.24;nan;98348.66;5003178;28;19981;-61
2023/06/27 05:42:21;;;;;;;;;;;;;;;17.22;nan;98344.66;4996677;28;19926;-61
2023/06/27 05:44:49;;;;;;;;;;;;;;;17.21;nan;98360.34;4991503;28;19926;-61
2023/06/27 05:47:17;;;;;;;;;;;;;;;17.24;nan;98351.41;4996427;28;19976;-61
2023/06/27 05:49:45;;;;;;;;;;;;;;;17.11;nan;98352.56;5008659;28;20375;-60
2023/06/27 05:52:13;;;;;;;;;;;;;;;17.25;nan;98339.25;5006907;28;20354;-62
2023/06/27 05:54:41;;;;;;;;;;;;;;;17.26;nan;98337.34;4996166;28;19990;-62
2023/06/27 05:57:10;;;;;;;;;;;;;;;17.31;nan;98337.13;5006043;28;19989;-60
2023/06/27 05:59:38;;;;;;;;;;;;;;;17.26;nan;98340.88;5000902;28;19949;-62
2023/06/27 06:02:06;;;;;;;;;;;;;;;17.26;nan;98343.63;5008743;28;19926;-62
2023/06/27 06:04:34;;;;;;;;;;;;;;;17.32;nan;98346.16;4998655;28;19930;-61
2023/06/27 06:07:03;;;;;;;;;;;;;;;17.43;nan;98342.59;5009129;28;20371;-62
2023/06/27 06:09:31;;;;;;;;;;;;;;;17.33;nan;98345.78;4997328;28;20040;-60
2023/06/27 06:11:59;;;;;;;;;;;;;;;17.31;nan;98350.00;4999327;28;20263;-62
2023/06/27 06:14:28;;;;;;;;;;;;;;;17.23;nan;98360.78;4987754;28;19957;-63
2023/06/27 06:16:56;;;;;;;;;;;;;;;17.41;nan;98353.09;5001193;28;19926;-63
2023/06/27 06:19:24;;;;;;;;;;;;;;;17.35;nan;98353.69;4986281;28;19926;-63
2023/06/27 06:21:52;;;;;;;;;;;;;;;17.40;nan;98350.69;5009308;28;19925;-63
2023/06/27 06:24:20;;;;;;;;;;;;;;;17.54;nan;98351.94;5011187;28;19925;-64
2023/06/27 06:26:48;;;;;;;;;;;;;;;17.46;nan;98349.31;4992945;28;19926;-64
2023/06/27 06:29:16;;;;;;;;;;;;;;;17.43;nan;98350.03;5010222;28;19975;-64
2023/06/27 06:31:45;;;;;;;;;;;;;;;17.45;nan;98364.19;5010081;28;19929;-62
2023/06/27 06:34:13;;;;;;;;;;;;;;;17.32;nan;98363.44;5006217;28;20052;-63
2023/06/27 06:36:41;;;;;;;;;;;;;;;17.42;nan;98364.91;4998761;28;19926;-62
2023/06/27 06:39:08;;;;;;;;;;;;;;;17.45;nan;98358.72;4998485;28;19964;-64
2023/06/27 06:41:36;;;;;;;;;;;;;;;17.65;nan;98374.25;4999209;28;19926;-63
2023/06/27 06:44:10;;;;;;;;;;;;;;;17.70;nan;98363.00;5001135;28;20393;-64
2023/06/27 06:46:38;;;;;;;;;;;;;;;17.53;nan;98358.59;4996965;28;20322;-64
2023/06/27 06:49:07;;;;;;;;;;;;;;;17.62;nan;98368.63;5009565;28;19925;-64
2023/06/27 06:51:35;;;;;;;;;;;;;;;17.56;nan;98370.81;5004254;28;19925;-62
2023/06/27 06:54:04;;;;;;;;;;;;;;;17.58;nan;98368.53;4993746;28;19930;-61
2023/06/27 06:56:32;;;;;;;;;;;;;;;17.53;nan;98371.53;5008234;28;20426;-61
2023/06/27 06:59:01;;;;;;;;;;;;;;;17.56;nan;98370.81;5002751;28;19996;-66
2023/06/27 07:01:29;;;;;;;;;;;;;;;17.60;nan;98371.72;5008751;28;19925;-61
2023/06/27 07:03:57;;;;;;;;;;;;;;;17.62;nan;98360.38;5009638;28;19941;-62
2023/06/27 07:06:28;;;;;;;;;;;;;;;17.87;nan;98361.16;5001771;28;20430;-61
2023/06/27 07:08:56;;;;;;;;;;;;;;;17.99;nan;98366.63;4999144;28;19933;-61
2023/06/27 07:11:24;;;;;;;;;;;;;;;17.83;nan;98369.31;5006675;28;19933;-61
2023/06/27 07:13:52;;;;;;;;;;;;;;;17.70;nan;98363.00;5004462;28;19933;-66
2023/06/27 07:16:22;;;;;;;;;;;;;;;17.67;nan;98360.94;4996398;28;20359;-62
2023/06/27 07:18:52;;;;;;;;;;;;;;;17.75;nan;98359.25;5002779;28;19937;-62
2023/06/27 07:21:20;;;;;;;;;;;;;;;17.98;nan;98359.53;5007759;28;20012;-61
2023/06/27 07:23:49;;;;;;;;;;;;;;;17.79;nan;98362.91;5009591;28;19932;-62
2023/06/27 07:26:17;;;;;;;;;;;;;;;17.73;nan;98365.09;5008653;28;19969;-61
2023/06/27 07:28:45;;;;;;;;;;;;;;;17.69;nan;98364.16;4996803;28;19926;-61
2023/06/27 07:31:12;;;;;;;;;;;;;;;17.67;nan;98366.44;4999433;28;19980;-63
2023/06/27 07:33:40;;;;;;;;;;;;;;;17.75;nan;98368.31;5008718;28;20417;-61
2023/06/27 07:36:08;;;;;;;;;;;;;;;17.78;nan;98366.78;5005170;28;19929;-62
2023/06/27 07:38:39;;;;;;;;;;;;;;;17.77;nan;98366.00;5004333;28;19952;-62
2023/06/27 07:41:08;;;;;;;;;;;;;;;17.67;nan;98366.44;5004523;28;19944;-62
2023/06/27 07:43:35;;;;;;;;;;;;;;;17.49;nan;98370.59;5000650;28;19933;-61
2023/06/27 07:46:03;;;;;;;;;;;;;;;17.47;nan;98370.13;5004883;28;19929;-61
2023/06/27 07:48:34;;;;;;;;;;;;;;;17.52;nan;98367.97;5005622;28;20016;-62
2023/06/27 07:51:02;;;;;;;;;;;;;;;17.54;nan;98367.63;4993887;28;20512;-61
2023/06/27 07:53:32;;;;;;;;;;;;;;;17.65;nan;98362.47;4993918;28;19926;-62
2023/06/27 07:56:00;;;;;;;;;;;;;;;17.75;nan;98362.00;5006048;28;19926;-62
2023/06/27 07:58:29;;;;;;;;;;;;;;;17.69;nan;98358.66;5008695;28;19925;-62
2023/06/27 08:00:57;;;;;;;;;;;;;;;17.77;nan;98371.50;4988890;28;19929;-61
2023/06/27 08:03:25;;;;;;;;;;;;;;;17.86;nan;98362.31;5003647;28;20354;-61
2023/06/27 08:05:54;;;;;;;;;;;;;;;17.89;nan;98359.66;5002769;28;19925;-61
2023/06/27 08:08:22;;;;;;;;;;;;;;;17.87;nan;98350.97;4988887;28;19961;-62
2023/06/27 08:10:50;;;;;;;;;;;;;;;17.85;nan;98349.72;5003129;28;19975;-62
2023/06/27 08:13:18;;;;;;;;;;;;;;;17.90;nan;98341.25;4998038;28;20629;-61
2023/06/27 08:15:46;;;;;;;;;;;;;;;18.08;nan;98347.25;5005680;28;19992;-62
2023/06/27 08:18:15;;;;;;;;;;;;;;;18.01;nan;98347.84;4980032;28;20017;-62
2023/06/27 08:20:42;;;;;;;;;;;;;;;18.04;nan;98344.38;4999476;28;19930;-62
2023/06/27 08:23:10;;;;;;;;;;;;;;;18.37;nan;98351.56;5006302;28;19925;-62
2023/06/27 08:25:38;;;;;;;;;;;;;;;18.35;nan;98351.91;4996124;28;19934;-62
2023/06/27 08:28:06;;;;;;;;;;;;;;;18.38;nan;98350.44;5001237;28;20357;-62
2023/06/27 08:30:34;;;;;;;;;;;;;;;18.32;nan;98350.69;5006712;28;19929;-62
2023/06/27 08:33:04;;;;;;;;;;;;;;;18.52;nan;98348.84;5004081;28;19925;-61
2023/06/27 08:35:32;;;;;;;;;;;;;;;18.59;nan;98340.78;4997467;28;19925;-63
2023/06/27 08:38:00;;;;;;;;;;;;;;;18.60;nan;98338.84;5010335;28;20027;-62
2023/06/27 08:40:28;;;;;;;;;;;;;;;18.49;nan;98335.00;5000185;28;20314;-61
2023/06/27 08:42:55;;;;;;;;;;;;;;;18.48;nan;98328.72;4991721;28;19965;-61
2023/06/27 08:45:24;;;;;;;;;;;;;;;18.52;nan;98328.78;4990566;28;19933;-61
2023/06/27 08:47:51;;;;;;;;;;;;;;;18.68;nan;98334.31;4986871;28;19929;-61
2023/06/27 08:50:21;;;;;;;;;;;;;;;18.76;nan;98334.16;4996253;28;20374;-61
2023/06/27 08:52:51;;;;;;;;;;;;;;;18.74;nan;98338.41;4995028;28;19925;-61
2023/06/27 08:55:20;;;;;;;;;;;;;;;18.75;nan;98337.25;4991681;28;19926;-61
2023/06/27 08:57:48;;;;;;;;;;;;;;;18.75;nan;98329.81;4998078;28;19926;-63
2023/06/27 09:00:19;;;;;;;;;;;;;;;18.92;nan;98331.41;4999631;28;19925;-61
2023/06/27 09:02:48;;;;;;;;;;;;;;;18.94;nan;98336.56;5005656;28;19930;-61
2023/06/27 09:05:16;;;;;;;;;;;;;;;19.14;nan;98329.97;5014679;28;19937;-61
2023/06/27 09:07:47;;;;;;;;;;;;;;;18.69;nan;98331.22;4995797;28;19980;-61
2023/06/27 09:10:15;;;;;;;;;;;;;;;18.84;nan;98324.91;5009014;28;19933;-61
2023/06/27 09:12:43;;;;;;;;;;;;;;;18.92;nan;98314.91;5002001;28;20008;-61
2023/06/27 09:15:11;;;;;;;;;;;;;;;18.90;nan;98325.44;5009151;28;19934;-61
2023/06/27 09:17:39;;;;;;;;;;;;;;;18.87;nan;98317.91;5003296;28;20020;-61
2023/06/27 09:20:10;;;;;;;;;;;;;;;19.28;nan;98307.44;5007715;28;20374;-61
2023/06/27 09:22:38;;;;;;;;;;;;;;;19.11;nan;98311.38;5006800;28;19989;-62
2023/06/27 09:25:12;;;;;;;;;;;;;;;19.08;nan;98307.41;4991255;28;19971;-62
2023/06/27 09:27:39;;;;;;;;;;;;;;;19.17;nan;98298.16;4996739;28;19926;-61
2023/06/27 09:30:07;;;;;;;;;;;;;;;19.38;nan;98304.13;4999596;28;19929;-61
2023/06/27 09:32:35;;;;;;;;;;;;;;;19.33;nan;98298.91;5002015;28;19929;-62
2023/06/27 09:35:03;;;;;;;;;;;;;;;19.31;nan;98302.03;5003747;28;20371;-63
2023/06/27 09:37:32;;;;;;;;;;;;;;;19.34;nan;98292.25;5008621;28;19926;-62
2023/06/27 09:40:17;;;;;;;;;;;;;;;19.34;nan;98298.56;5012154;28;20450;-63
2023/06/27 09:42:50;;;;;;;;;;;;;;;19.50;nan;98297.72;5003431;28;19930;-61
2023/06/27 09:45:19;;;;;;;;;;;;;;;19.61;nan;98301.53;5001799;28;20393;-62
2023/06/27 09:47:47;;;;;;;;;;;;;;;19.61;nan;98293.28;5002094;28;19981;-62
2023/06/27 09:50:16;;;;;;;;;;;;;;;19.65;nan;98296.09;5016458;28;19929;-62
2023/06/27 09:52:52;;;;;;;;;;;;;;;19.62;nan;98292.91;5007509;28;19968;-61
2023/06/27 09:55:20;;;;;;;;;;;;;;;19.51;nan;98302.88;5001046;28;19932;-62
2023/06/27 09:57:50;;;;;;;;;;;;;;;19.63;nan;98294.50;4983765;28;19949;-66
2023/06/27 10:00:18;;;;;;;;;;;;;;;19.86;nan;98291.78;5011383;28;19955;-61
2023/06/27 10:02:47;;;;;;;;;;;;;;;19.96;nan;98295.13;5010736;28;19926;-62
2023/06/27 10:05:15;;;;;;;;;;;;;;;20.03;nan;98293.34;4995751;28;20445;-62
2023/06/27 10:07:43;;;;;;;;;;;;;;;19.89;nan;98288.31;5010206;28;19926;-62
2023/06/27 10:10:11;;;;;;;;;;;;;;;19.93;nan;98288.41;5007907;28;19933;-62
2023/06/27 10:12:39;;;;;;;;;;;;;;;20.07;nan;98283.16;5007572;28;19926;-62
2023/06/27 10:15:10;;;;;;;;;;;;;;;20.07;nan;98290.63;5007520;28;19972;-62
2023/06/27 10:17:38;;;;;;;;;;;;;;;19.97;nan;98293.97;5005171;28;19960;-63
2023/06/27 10:20:11;;;;;;;;;;;;;;;20.03;nan;98290.59;5005950;28;20020;-62
2023/06/27 10:22:39;;;;;;;;;;;;;;;19.91;nan;98285.19;4998906;28;19926;-62
2023/06/27 10:25:08;;;;;;;;;;;;;;;19.97;nan;98282.94;4998813;28;19934;-61
2023/06/27 10:27:36;;;;;;;;;;;;;;;20.18;nan;98279.81;4998753;28;19932;-62
2023/06/27 10:30:05;;;;;;;;;;;;;;;20.15;nan;98284.09;4995214;28;20376;-62
2023/06/27 10:32:43;;;;;;;;;;;;;;;20.38;nan;98290.44;5012305;28;19929;-62
2023/06/27 10:35:12;;;;;;;;;;;;;;;20.33;nan;98279.69;5005444;28;19940;-62
2023/06/27 10:37:42;;;;;;;;;;;;;;;20.31;nan;98293.06;4992160;28;19961;-63
2023/06/27 10:40:10;;;;;;;;;;;;;;;20.41;nan;98275.91;4992246;28;20361;-63
2023/06/27 10:42:41;;;;;;;;;;;;;;;20.56;nan;98282.50;5011031;28;19926;-62
2023/06/27 10:45:10;;;;;;;;;;;;;;;20.78;nan;98286.44;4985893;28;19925;-61
2023/06/27 10:47:41;;;;;;;;;;;;;;;20.88;nan;98285.81;5009512;28;19955;-62
2023/06/27 10:50:11;;;;;;;;;;;;;;;20.90;nan;98282.66;5002339;28;19930;-63
2023/06/27 10:52:39;;;;;;;;;;;;;;;21.02;nan;98270.59;5001518;28;19931;-63
2023/06/27 10:55:28;;;;;;;;;;;;;;;21.13;nan;98277.09;5012302;28;19934;-62
2023/06/27 10:58:06;;;;;;;;;;;;;;;21.13;nan;98286.16;4986415;28;19937;-62
2023/06/27 11:00:34;;;;;;;;;;;;;;;20.89;nan;98284.63;5002895;28;20020;-61
2023/06/27 11:03:05;;;;;;;;;;;;;;;20.88;nan;98280.28;5006510;28;20378;-61
2023/06/27 11:05:54;;;;;;;;;;;;;;;21.27;nan;98282.81;5012959;28;19933;-61
2023/06/27 11:08:22;;;;;;;;;;;;;;;21.26;nan;98274.91;5001050;28;20706;-63
2023/06/27 11:10:54;;;;;;;;;;;;;;;21.03;nan;98278.50;5001519;28;19932;-61
2023/06/27 11:13:23;;;;;;;;;;;;;;;21.16;nan;98279.91;4989093;28;19948;-62
2023/06/27 11:15:53;;;;;;;;;;;;;;;21.26;nan;98272.16;4999027;28;19933;-63
2023/06/27 11:18:25;;;;;;;;;;;;;;;21.19;nan;98267.31;4989212;28;19933;-63
2023/06/27 11:20:53;;;;;;;;;;;;;;;21.16;nan;98274.38;4998412;28;20025;-62
2023/06/27 11:23:22;;;;;;;;;;;;;;;21.13;nan;98268.78;5000882;28;19926;-62
2023/06/27 11:25:49;;;;;;;;;;;;;;;21.02;nan;98274.16;4992434;28;19926;-61
2023/06/27 11:28:18;;;;;;;;;;;;;;;20.81;nan;98266.34;4987812;28;19925;-62
2023/06/27 11:30:46;;;;;;;;;;;;;;;20.89;nan;98268.06;5012073;28;19983;-61
2023/06/27 11:33:16;;;;;;;;;;;;;;;20.90;nan;98255.84;5008051;28;19968;-62
2023/06/27 11:35:45;;;;;;;;;;;;;;;20.93;nan;98260.63;4991506;28;19952;-62
2023/06/27 11:38:13;;;;;;;;;;;;;;;20.95;nan;98262.22;5006576;28;19929;-63
2023/06/27 11:40:51;;;;;;;;;;;;;;;20.91;nan;98253.88;4994906;28;20012;-63
2023/06/27 11:43:19;;;;;;;;;;;;;;;20.91;nan;98257.44;5004514;28;19925;-61
2023/06/27 11:45:48;;;;;;;;;;;;;;;20.93;nan;98259.81;4996990;28;19936;-62
2023/06/27 11:48:16;;;;;;;;;;;;;;;20.85;nan;98263.66;5005708;28;20442;-62
2023/06/27 11:50:59;;;;;;;;;;;;;;;20.92;nan;98256.25;5000385;28;20387;-62
2023/06/27 11:53:28;;;;;;;;;;;;;;;20.93;nan;98255.09;4993890;28;19964;-62
2023/06/27 11:55:58;;;;;;;;;;;;;;;21.06;nan;98241.88;4998653;28;20470;-62
2023/06/27 11:58:47;;;;;;;;;;;;;;;21.07;nan;98237.13;4992577;28;19925;-62
2023/06/27 12:01:16;;;;;;;;;;;;;;;20.96;nan;98233.44;5006678;28;20020;-62
2023/06/27 12:03:47;;;;;;;;;;;;;;;20.92;nan;98242.44;5001332;28;20367;-64
2023/06/27 12:06:27;;;;;;;;;;;;;;;20.93;nan;98233.03;4985974;28;19926;-62
2023/06/27 12:08:55;;;;;;;;;;;;;;;20.87;nan;98233.69;4996502;28;20290;-62
2023/06/27 12:11:27;;;;;;;;;;;;;;;20.88;nan;98233.34;4998814;28;19926;-61
2023/06/27 12:13:55;;;;;;;;;;;;;;;20.89;nan;98236.88;4994049;28;19926;-61
2023/06/27 12:16:23;;;;;;;;;;;;;;;20.95;nan;98224.34;4996474;28;19933;-62
2023/06/27 12:18:51;;;;;;;;;;;;;;;20.83;nan;98228.13;5007871;28;19976;-62
2023/06/27 12:21:20;;;;;;;;;;;;;;;20.87;nan;98231.72;5000398;28;19975;-61
2023/06/27 12:23:49;;;;;;;;;;;;;;;20.91;nan;98217.97;5006672;28;19932;-61
2023/06/27 12:26:17;;;;;;;;;;;;;;;20.81;nan;98219.41;4999368;28;19929;-62
2023/06/27 12:28:55;;;;;;;;;;;;;;;20.89;nan;98212.03;4998020;28;19926;-63
2023/06/27 12:31:23;;;;;;;;;;;;;;;20.92;nan;98208.50;5003827;28;19956;-61
2023/06/27 12:33:52;;;;;;;;;;;;;;;20.92;nan;98217.59;4988739;28;19926;-61
2023/06/27 12:36:21;;;;;;;;;;;;;;;20.85;nan;98211.19;5003822;28;19983;-62
2023/06/27 12:38:51;;;;;;;;;;;;;;;20.79;nan;98216.22;4986250;28;19926;-61
2023/06/27 12:41:19;;;;;;;;;;;;;;;20.88;nan;98202.16;5001928;28;20020;-61
2023/06/27 12:43:47;;;;;;;;;;;;;;;20.93;nan;98202.63;4998582;28;19957;-62
2023/06/27 12:46:15;;;;;;;;;;;;;;;20.97;nan;98190.81;4998010;28;20464;-63
2023/06/27 12:48:44;;;;;;;;;;;;;;;21.03;nan;98192.09;4999255;28;19932;-62
2023/06/27 12:51:12;;;;;;;;;;;;;;;21.09;nan;98185.06;4982386;28;20366;-63
2023/06/27 12:53:41;;;;;;;;;;;;;;;21.09;nan;98179.53;4992645;28;19981;-62
2023/06/27 12:56:13;;;;;;;;;;;;;;;21.24;nan;98172.25;5004272;28;20015;-64
2023/06/27 12:58:45;;;;;;;;;;;;;;;21.41;nan;98169.75;5009009;28;19931;-62
2023/06/27 13:01:13;;;;;;;;;;;;;;;21.38;nan;98176.00;5005852;28;19925;-62
2023/06/27 13:03:41;;;;;;;;;;;;;;;21.53;nan;98182.53;4993360;28;19933;-62
2023/06/27 13:06:09;;;;;;;;;;;;;;;21.43;nan;98170.16;5000018;28;19926;-62
2023/06/27 13:08:37;;;;;;;;;;;;;;;21.45;nan;98172.53;5003267;28;19932;-63
2023/06/27 13:11:05;;;;;;;;;;;;;;;21.52;nan;98180.94;4995761;28;19925;-62
2023/06/27 13:13:36;;;;;;;;;;;;;;;21.54;nan;98166.72;5008072;28;20379;-61
2023/06/27 13:16:05;;;;;;;;;;;;;;;21.52;nan;98169.06;4984734;28;20019;-63
2023/06/27 13:18:42;;;;;;;;;;;;;;;21.54;nan;98164.75;5009617;28;19929;-64
2023/06/27 13:21:10;;;;;;;;;;;;;;;21.53;nan;98167.91;4996838;28;19933;-63